sensor_id;sensor_type;location;lat;lon;timestamp;temperature;humidity
59208;DHT22;44977;53.132;6.408;2023-11-21T00:03:24;9.40;99.90
59208;DHT22;44977;53.132;6.408;2023-11-21T00:08:25;9.30;99.90
59208;DHT22;44977;53.132;6.408;2023-11-21T00:13:25;9.40;99.90
59208;DHT22;44977;53.132;6.408;2023-11-21T00:18:26;9.40;99.90
59208;DHT22;44977;53.132;6.408;2023-11-21T00:23:27;9.40;99.90
59208;DHT22;44977;53.132;6.408;2023-11-21T00:28:27;9.40;99.90
59208;DHT22;44977;53.132;6.408;2023-11-21T00:33:28;9.40;99.90
59208;DHT22;44977;53.132;6.408;2023-11-21T00:38:29;9.40;99.90
59208;DHT22;44977;53.132;6.408;2023-11-21T00:43:30;9.40;99.90
59208;DHT22;44977;53.132;6.408;2023-11-21T00:48:31;9.40;99.90
59208;DHT22;44977;53.132;6.408;2023-11-21T00:53:32;9.40;99.90
59208;DHT22;44977;53.132;6.408;2023-11-21T00:58:32;9.40;99.90
59208;DHT22;44977;53.132;6.408;2023-11-21T01:03:33;9.40;99.90
59208;DHT22;44977;53.132;6.408;2023-11-21T01:08:34;9.40;99.90
59208;DHT22;44977;53.132;6.408;2023-11-21T01:13:35;9.40;99.90
59208;DHT22;44977;53.132;6.408;2023-11-21T01:18:37;9.40;99.90
59208;DHT22;44977;53.132;6.408;2023-11-21T01:23:38;9.40;99.90
59208;DHT22;44977;53.132;6.408;2023-11-21T01:28:39;9.40;99.90
59208;DHT22;44977;53.132;6.408;2023-11-21T01:33:39;9.40;99.90
59208;DHT22;44977;53.132;6.408;2023-11-21T01:38:40;9.40;99.90
59208;DHT22;44977;53.132;6.408;2023-11-21T01:43:41;9.40;99.90
59208;DHT22;44977;53.132;6.408;2023-11-21T01:48:42;9.40;99.90
59208;DHT22;44977;53.132;6.408;2023-11-21T01:53:42;9.40;99.90
59208;DHT22;44977;53.132;6.408;2023-11-21T01:58:45;9.40;99.90
59208;DHT22;44977;53.132;6.408;2023-11-21T02:03:47;9.40;99.90
59208;DHT22;44977;53.132;6.408;2023-11-21T02:08:48;9.40;99.90
59208;DHT22;44977;53.132;6.408;2023-11-21T02:13:49;9.40;99.90
59208;DHT22;44977;53.132;6.408;2023-11-21T02:18:51;9.40;99.90
59208;DHT22;44977;53.132;6.408;2023-11-21T02:23:52;9.40;99.90
59208;DHT22;44977;53.132;6.408;2023-11-21T02:28:53;9.40;99.90
59208;DHT22;44977;53.132;6.408;2023-11-21T02:33:53;9.50;99.90
59208;DHT22;44977;53.132;6.408;2023-11-21T02:38:54;9.50;99.90
59208;DHT22;44977;53.132;6.408;2023-11-21T02:43:55;9.50;99.90
59208;DHT22;44977;53.132;6.408;2023-11-21T02:48:55;9.50;99.90
59208;DHT22;44977;53.132;6.408;2023-11-21T02:53:56;9.50;99.90
59208;DHT22;44977;53.132;6.408;2023-11-21T02:59:02;9.50;99.90
59208;DHT22;44977;53.132;6.408;2023-11-21T03:04:04;9.50;99.90
59208;DHT22;44977;53.132;6.408;2023-11-21T03:09:04;9.50;99.90
59208;DHT22;44977;53.132;6.408;2023-11-21T03:14:07;9.50;99.90
59208;DHT22;44977;53.132;6.408;2023-11-21T03:19:07;9.60;99.90
59208;DHT22;44977;53.132;6.408;2023-11-21T03:24:08;9.60;99.90
59208;DHT22;44977;53.132;6.408;2023-11-21T03:29:09;9.60;99.90
59208;DHT22;44977;53.132;6.408;2023-11-21T03:34:15;9.50;99.90
59208;DHT22;44977;53.132;6.408;2023-11-21T03:39:16;9.60;99.90
59208;DHT22;44977;53.132;6.408;2023-11-21T03:44:16;9.60;99.90
59208;DHT22;44977;53.132;6.408;2023-11-21T03:49:18;9.60;99.90
59208;DHT22;44977;53.132;6.408;2023-11-21T03:54:18;9.50;99.90
59208;DHT22;44977;53.132;6.408;2023-11-21T03:59:19;9.50;99.90
59208;DHT22;44977;53.132;6.408;2023-11-21T04:04:20;9.50;99.90
59208;DHT22;44977;53.132;6.408;2023-11-21T04:09:21;9.50;99.90
59208;DHT22;44977;53.132;6.408;2023-11-21T04:14:24;9.50;99.90
59208;DHT22;44977;53.132;6.408;2023-11-21T04:19:25;9.50;99.90
59208;DHT22;44977;53.132;6.408;2023-11-21T04:24:26;9.50;99.90
59208;DHT22;44977;53.132;6.408;2023-11-21T04:29:26;9.50;99.90
59208;DHT22;44977;53.132;6.408;2023-11-21T04:34:27;9.50;99.90
59208;DHT22;44977;53.132;6.408;2023-11-21T04:39:28;9.50;99.90
59208;DHT22;44977;53.132;6.408;2023-11-21T04:44:28;9.50;99.90
59208;DHT22;44977;53.132;6.408;2023-11-21T04:49:29;9.50;99.90
59208;DHT22;44977;53.132;6.408;2023-11-21T04:54:30;9.50;99.90
59208;DHT22;44977;53.132;6.408;2023-11-21T04:59:31;9.50;99.90
59208;DHT22;44977;53.132;6.408;2023-11-21T05:04:32;9.50;99.90
59208;DHT22;44977;53.132;6.408;2023-11-21T05:09:33;9.50;99.90
59208;DHT22;44977;53.132;6.408;2023-11-21T05:14:34;9.50;99.90
59208;DHT22;44977;53.132;6.408;2023-11-21T05:19:35;9.50;99.90
59208;DHT22;44977;53.132;6.408;2023-11-21T05:24:36;9.50;99.90
59208;DHT22;44977;53.132;6.408;2023-11-21T05:29:36;9.50;99.90
59208;DHT22;44977;53.132;6.408;2023-11-21T05:34:38;9.50;99.90
59208;DHT22;44977;53.132;6.408;2023-11-21T05:39:38;9.50;99.90
59208;DHT22;44977;53.132;6.408;2023-11-21T05:44:41;9.50;99.90
59208;DHT22;44977;53.132;6.408;2023-11-21T05:49:43;9.50;99.90
59208;DHT22;44977;53.132;6.408;2023-11-21T05:54:45;9.50;99.90
59208;DHT22;44977;53.132;6.408;2023-11-21T05:59:46;9.50;99.90
59208;DHT22;44977;53.132;6.408;2023-11-21T06:04:47;9.50;99.90
59208;DHT22;44977;53.132;6.408;2023-11-21T06:09:47;9.50;99.90
59208;DHT22;44977;53.132;6.408;2023-11-21T06:14:50;9.50;99.90
59208;DHT22;44977;53.132;6.408;2023-11-21T06:19:51;9.50;99.90
59208;DHT22;44977;53.132;6.408;2023-11-21T06:24:53;9.50;99.90
59208;DHT22;44977;53.132;6.408;2023-11-21T06:29:53;9.40;99.90
59208;DHT22;44977;53.132;6.408;2023-11-21T06:34:54;9.40;99.90
59208;DHT22;44977;53.132;6.408;2023-11-21T06:39:55;9.40;99.90
59208;DHT22;44977;53.132;6.408;2023-11-21T06:44:57;9.40;99.90
59208;DHT22;44977;53.132;6.408;2023-11-21T06:49:58;9.40;99.90
59208;DHT22;44977;53.132;6.408;2023-11-21T06:54:59;9.40;99.90
59208;DHT22;44977;53.132;6.408;2023-11-21T07:00:00;9.40;99.90
59208;DHT22;44977;53.132;6.408;2023-11-21T07:05:01;9.40;99.90
59208;DHT22;44977;53.132;6.408;2023-11-21T07:10:02;9.40;99.90
59208;DHT22;44977;53.132;6.408;2023-11-21T07:15:04;9.40;99.90
59208;DHT22;44977;53.132;6.408;2023-11-21T07:20:07;9.40;99.90
59208;DHT22;44977;53.132;6.408;2023-11-21T07:25:09;9.40;99.90
59208;DHT22;44977;53.132;6.408;2023-11-21T07:30:13;9.30;99.90
59208;DHT22;44977;53.132;6.408;2023-11-21T07:35:13;9.40;99.90
59208;DHT22;44977;53.132;6.408;2023-11-21T07:40:14;9.30;99.90
59208;DHT22;44977;53.132;6.408;2023-11-21T07:45:15;9.30;99.90
59208;DHT22;44977;53.132;6.408;2023-11-21T07:50:16;9.30;99.90
59208;DHT22;44977;53.132;6.408;2023-11-21T07:55:16;9.30;99.90
59208;DHT22;44977;53.132;6.408;2023-11-21T08:00:17;9.20;99.90
59208;DHT22;44977;53.132;6.408;2023-11-21T08:05:18;9.20;99.90
59208;DHT22;44977;53.132;6.408;2023-11-21T08:10:19;9.20;99.90
59208;DHT22;44977;53.132;6.408;2023-11-21T08:15:22;9.20;99.90
59208;DHT22;44977;53.132;6.408;2023-11-21T08:20:22;9.20;99.90
59208;DHT22;44977;53.132;6.408;2023-11-21T08:25:24;9.20;99.90
59208;DHT22;44977;53.132;6.408;2023-11-21T08:30:26;9.10;99.90
59208;DHT22;44977;53.132;6.408;2023-11-21T08:35:31;9.10;99.90
59208;DHT22;44977;53.132;6.408;2023-11-21T08:40:31;9.10;99.90
59208;DHT22;44977;53.132;6.408;2023-11-21T08:45:32;9.00;99.90
59208;DHT22;44977;53.132;6.408;2023-11-21T08:50:34;9.00;99.90
59208;DHT22;44977;53.132;6.408;2023-11-21T08:55:35;9.00;99.90
59208;DHT22;44977;53.132;6.408;2023-11-21T09:00:39;9.00;99.90
59208;DHT22;44977;53.132;6.408;2023-11-21T09:05:40;9.00;99.90
59208;DHT22;44977;53.132;6.408;2023-11-21T09:10:41;9.00;99.90
59208;DHT22;44977;53.132;6.408;2023-11-21T09:15:43;9.00;99.90
59208;DHT22;44977;53.132;6.408;2023-11-21T09:20:46;9.00;99.90
59208;DHT22;44977;53.132;6.408;2023-11-21T09:25:47;9.00;99.90
59208;DHT22;44977;53.132;6.408;2023-11-21T09:30:50;9.00;99.90
59208;DHT22;44977;53.132;6.408;2023-11-21T09:35:51;9.00;99.90
59208;DHT22;44977;53.132;6.408;2023-11-21T09:40:52;8.90;99.90
59208;DHT22;44977;53.132;6.408;2023-11-21T09:45:59;8.90;99.90
59208;DHT22;44977;53.132;6.408;2023-11-21T09:51:01;8.90;99.90
59208;DHT22;44977;53.132;6.408;2023-11-21T09:56:04;8.80;99.90
59208;DHT22;44977;53.132;6.408;2023-11-21T10:01:05;8.80;99.90
59208;DHT22;44977;53.132;6.408;2023-11-21T10:06:08;8.80;99.90
59208;DHT22;44977;53.132;6.408;2023-11-21T10:11:11;8.80;99.90
59208;DHT22;44977;53.132;6.408;2023-11-21T10:16:15;8.80;99.90
59208;DHT22;44977;53.132;6.408;2023-11-21T10:21:18;8.80;99.90
59208;DHT22;44977;53.132;6.408;2023-11-21T10:26:20;8.80;99.90
59208;DHT22;44977;53.132;6.408;2023-11-21T10:31:27;8.70;99.90
59208;DHT22;44977;53.132;6.408;2023-11-21T10:36:28;8.70;99.90
59208;DHT22;44977;53.132;6.408;2023-11-21T10:41:28;8.70;99.90
59208;DHT22;44977;53.132;6.408;2023-11-21T10:46:30;8.70;99.90
59208;DHT22;44977;53.132;6.408;2023-11-21T10:51:31;8.70;99.90
59208;DHT22;44977;53.132;6.408;2023-11-21T10:56:31;8.70;99.90
59208;DHT22;44977;53.132;6.408;2023-11-21T11:01:36;8.80;99.90
59208;DHT22;44977;53.132;6.408;2023-11-21T11:06:37;8.80;99.90
59208;DHT22;44977;53.132;6.408;2023-11-21T11:11:42;8.80;99.90
59208;DHT22;44977;53.132;6.408;2023-11-21T11:16:45;8.70;99.90
59208;DHT22;44977;53.132;6.408;2023-11-21T11:21:48;8.80;99.90
59208;DHT22;44977;53.132;6.408;2023-11-21T11:32:12;8.70;99.90
59208;DHT22;44977;53.132;6.408;2023-11-21T11:37:17;8.60;99.90
59208;DHT22;44977;53.132;6.408;2023-11-21T11:42:18;8.60;99.90
59208;DHT22;44977;53.132;6.408;2023-11-21T11:47:25;8.60;99.90
59208;DHT22;44977;53.132;6.408;2023-11-21T11:52:39;8.60;99.90
59208;DHT22;44977;53.132;6.408;2023-11-21T11:57:42;8.60;99.90
59208;DHT22;44977;53.132;6.408;2023-11-21T12:03:07;8.60;99.90
59208;DHT22;44977;53.132;6.408;2023-11-21T12:08:07;8.60;99.90
59208;DHT22;44977;53.132;6.408;2023-11-21T12:13:11;8.60;99.90
59208;DHT22;44977;53.132;6.408;2023-11-21T12:18:15;8.60;99.90
59208;DHT22;44977;53.132;6.408;2023-11-21T12:23:16;8.60;99.90
59208;DHT22;44977;53.132;6.408;2023-11-21T12:28:17;8.60;99.90
59208;DHT22;44977;53.132;6.408;2023-11-21T12:33:18;8.60;99.90
59208;DHT22;44977;53.132;6.408;2023-11-21T12:38:19;8.60;99.90
59208;DHT22;44977;53.132;6.408;2023-11-21T12:43:20;8.60;99.90
59208;DHT22;44977;53.132;6.408;2023-11-21T12:48:21;8.60;99.90
59208;DHT22;44977;53.132;6.408;2023-11-21T12:53:25;8.60;99.90
59208;DHT22;44977;53.132;6.408;2023-11-21T12:58:26;8.60;99.90
59208;DHT22;44977;53.132;6.408;2023-11-21T13:03:27;8.60;99.90
59208;DHT22;44977;53.132;6.408;2023-11-21T13:08:27;8.60;99.90
59208;DHT22;44977;53.132;6.408;2023-11-21T13:13:30;8.70;99.90
59208;DHT22;44977;53.132;6.408;2023-11-21T13:18:32;8.70;99.90
59208;DHT22;44977;53.132;6.408;2023-11-21T13:23:35;8.60;99.90
59208;DHT22;44977;53.132;6.408;2023-11-21T13:28:36;8.70;99.90
59208;DHT22;44977;53.132;6.408;2023-11-21T13:33:38;8.70;99.90
59208;DHT22;44977;53.132;6.408;2023-11-21T13:38:39;8.80;99.90
59208;DHT22;44977;53.132;6.408;2023-11-21T13:43:42;8.80;99.90
59208;DHT22;44977;53.132;6.408;2023-11-21T13:48:49;8.80;99.90
59208;DHT22;44977;53.132;6.408;2023-11-21T13:53:56;8.80;99.90
59208;DHT22;44977;53.132;6.408;2023-11-21T13:58:57;8.70;99.90
59208;DHT22;44977;53.132;6.408;2023-11-21T14:04:04;8.70;99.90
59208;DHT22;44977;53.132;6.408;2023-11-21T14:09:24;8.70;99.90
59208;DHT22;44977;53.132;6.408;2023-11-21T14:14:36;8.60;99.90
59208;DHT22;44977;53.132;6.408;2023-11-21T14:19:36;8.50;99.90
59208;DHT22;44977;53.132;6.408;2023-11-21T14:24:41;8.50;99.90
59208;DHT22;44977;53.132;6.408;2023-11-21T14:29:46;8.50;99.90
59208;DHT22;44977;53.132;6.408;2023-11-21T14:34:47;8.50;99.90
59208;DHT22;44977;53.132;6.408;2023-11-21T14:39:48;8.40;99.90
59208;DHT22;44977;53.132;6.408;2023-11-21T14:44:50;8.40;99.90
59208;DHT22;44977;53.132;6.408;2023-11-21T14:49:52;8.40;99.90
59208;DHT22;44977;53.132;6.408;2023-11-21T14:54:53;8.40;99.90
59208;DHT22;44977;53.132;6.408;2023-11-21T15:00:14;8.30;99.90
59208;DHT22;44977;53.132;6.408;2023-11-21T15:05:33;8.30;99.90
59208;DHT22;44977;53.132;6.408;2023-11-21T15:10:35;8.20;99.90
59208;DHT22;44977;53.132;6.408;2023-11-21T15:15:46;8.10;99.90
59208;DHT22;44977;53.132;6.408;2023-11-21T15:20:47;8.10;99.90
59208;DHT22;44977;53.132;6.408;2023-11-21T15:25:48;8.10;99.90
59208;DHT22;44977;53.132;6.408;2023-11-21T15:30:48;8.10;99.90
59208;DHT22;44977;53.132;6.408;2023-11-21T15:35:51;8.00;99.90
59208;DHT22;44977;53.132;6.408;2023-11-21T15:40:52;8.00;99.90
59208;DHT22;44977;53.132;6.408;2023-11-21T15:45:53;8.00;99.90
59208;DHT22;44977;53.132;6.408;2023-11-21T15:50:56;7.90;99.90
59208;DHT22;44977;53.132;6.408;2023-11-21T15:55:58;7.90;99.90
59208;DHT22;44977;53.132;6.408;2023-11-21T16:00:59;7.90;99.90
59208;DHT22;44977;53.132;6.408;2023-11-21T16:05:59;7.80;99.90
59208;DHT22;44977;53.132;6.408;2023-11-21T16:11:00;7.80;99.90
59208;DHT22;44977;53.132;6.408;2023-11-21T16:16:01;7.70;99.90
59208;DHT22;44977;53.132;6.408;2023-11-21T16:21:02;7.60;99.90
59208;DHT22;44977;53.132;6.408;2023-11-21T16:26:03;7.60;99.90
59208;DHT22;44977;53.132;6.408;2023-11-21T16:31:05;7.50;99.90
59208;DHT22;44977;53.132;6.408;2023-11-21T16:36:06;7.40;99.90
59208;DHT22;44977;53.132;6.408;2023-11-21T16:41:07;7.30;99.90
59208;DHT22;44977;53.132;6.408;2023-11-21T16:46:11;7.30;99.90
59208;DHT22;44977;53.132;6.408;2023-11-21T16:51:17;7.20;99.90
59208;DHT22;44977;53.132;6.408;2023-11-21T16:56:18;7.20;99.90
59208;DHT22;44977;53.132;6.408;2023-11-21T17:01:19;7.10;99.90
59208;DHT22;44977;53.132;6.408;2023-11-21T17:06:20;7.10;99.90
59208;DHT22;44977;53.132;6.408;2023-11-21T17:11:21;7.00;99.90
59208;DHT22;44977;53.132;6.408;2023-11-21T17:16:21;6.90;99.90
59208;DHT22;44977;53.132;6.408;2023-11-21T17:21:23;6.90;99.90
59208;DHT22;44977;53.132;6.408;2023-11-21T17:26:24;6.80;99.90
59208;DHT22;44977;53.132;6.408;2023-11-21T17:31:25;6.70;99.90
59208;DHT22;44977;53.132;6.408;2023-11-21T17:36:25;6.80;99.90
59208;DHT22;44977;53.132;6.408;2023-11-21T17:41:26;6.70;99.90
59208;DHT22;44977;53.132;6.408;2023-11-21T17:46:27;6.70;99.90
59208;DHT22;44977;53.132;6.408;2023-11-21T17:51:27;6.70;99.90
59208;DHT22;44977;53.132;6.408;2023-11-21T17:56:28;6.60;99.90
59208;DHT22;44977;53.132;6.408;2023-11-21T18:01:29;6.60;99.90
59208;DHT22;44977;53.132;6.408;2023-11-21T18:06:34;6.60;99.90
59208;DHT22;44977;53.132;6.408;2023-11-21T18:11:34;6.50;99.90
59208;DHT22;44977;53.132;6.408;2023-11-21T18:16:35;6.50;99.90
59208;DHT22;44977;53.132;6.408;2023-11-21T18:21:39;6.50;99.90
59208;DHT22;44977;53.132;6.408;2023-11-21T18:26:41;6.50;99.90
59208;DHT22;44977;53.132;6.408;2023-11-21T18:31:41;6.40;99.90
59208;DHT22;44977;53.132;6.408;2023-11-21T18:36:43;6.40;99.90
59208;DHT22;44977;53.132;6.408;2023-11-21T18:41:45;6.40;99.90
59208;DHT22;44977;53.132;6.408;2023-11-21T18:46:46;6.40;99.90
59208;DHT22;44977;53.132;6.408;2023-11-21T18:51:47;6.40;99.90
59208;DHT22;44977;53.132;6.408;2023-11-21T18:56:51;6.40;99.90
59208;DHT22;44977;53.132;6.408;2023-11-21T19:01:52;6.30;99.90
59208;DHT22;44977;53.132;6.408;2023-11-21T19:06:53;6.30;99.90
59208;DHT22;44977;53.132;6.408;2023-11-21T19:12:00;6.30;99.90
59208;DHT22;44977;53.132;6.408;2023-11-21T19:17:00;6.30;99.90
59208;DHT22;44977;53.132;6.408;2023-11-21T19:22:01;6.40;99.90
59208;DHT22;44977;53.132;6.408;2023-11-21T19:27:02;6.30;99.90
59208;DHT22;44977;53.132;6.408;2023-11-21T19:32:03;6.30;99.90
59208;DHT22;44977;53.132;6.408;2023-11-21T19:37:04;6.30;99.90
59208;DHT22;44977;53.132;6.408;2023-11-21T19:42:06;6.30;99.90
59208;DHT22;44977;53.132;6.408;2023-11-21T19:47:07;6.30;99.90
59208;DHT22;44977;53.132;6.408;2023-11-21T19:52:08;6.30;99.90
59208;DHT22;44977;53.132;6.408;2023-11-21T19:57:10;6.30;99.90
59208;DHT22;44977;53.132;6.408;2023-11-21T20:02:14;6.30;99.90
59208;DHT22;44977;53.132;6.408;2023-11-21T20:07:15;6.20;99.90
59208;DHT22;44977;53.132;6.408;2023-11-21T20:12:19;6.20;99.90
59208;DHT22;44977;53.132;6.408;2023-11-21T20:17:19;6.20;99.90
59208;DHT22;44977;53.132;6.408;2023-11-21T20:22:20;6.10;99.90
59208;DHT22;44977;53.132;6.408;2023-11-21T20:27:21;6.10;99.90
59208;DHT22;44977;53.132;6.408;2023-11-21T20:32:22;6.10;99.90
59208;DHT22;44977;53.132;6.408;2023-11-21T20:37:24;6.10;99.90
59208;DHT22;44977;53.132;6.408;2023-11-21T20:42:25;6.00;99.90
59208;DHT22;44977;53.132;6.408;2023-11-21T20:47:26;6.00;99.90
59208;DHT22;44977;53.132;6.408;2023-11-21T20:52:27;6.00;99.90
59208;DHT22;44977;53.132;6.408;2023-11-21T20:57:28;6.00;99.90
59208;DHT22;44977;53.132;6.408;2023-11-21T21:02:29;5.90;99.90
59208;DHT22;44977;53.132;6.408;2023-11-21T21:07:29;5.90;99.90
59208;DHT22;44977;53.132;6.408;2023-11-21T21:12:31;5.90;99.90
59208;DHT22;44977;53.132;6.408;2023-11-21T21:17:32;5.90;99.90
59208;DHT22;44977;53.132;6.408;2023-11-21T21:22:33;5.90;99.90
59208;DHT22;44977;53.132;6.408;2023-11-21T21:27:34;5.90;99.90
59208;DHT22;44977;53.132;6.408;2023-11-21T21:32:36;5.90;99.90
59208;DHT22;44977;53.132;6.408;2023-11-21T21:37:39;5.90;99.90
59208;DHT22;44977;53.132;6.408;2023-11-21T21:42:39;5.90;99.90
59208;DHT22;44977;53.132;6.408;2023-11-21T21:47:40;5.90;99.90
59208;DHT22;44977;53.132;6.408;2023-11-21T21:52:41;5.90;99.90
59208;DHT22;44977;53.132;6.408;2023-11-21T21:57:42;5.90;99.90
59208;DHT22;44977;53.132;6.408;2023-11-21T22:02:43;5.90;99.90
59208;DHT22;44977;53.132;6.408;2023-11-21T22:07:44;5.90;99.90
59208;DHT22;44977;53.132;6.408;2023-11-21T22:12:44;5.90;99.90
59208;DHT22;44977;53.132;6.408;2023-11-21T22:17:45;5.80;99.90
59208;DHT22;44977;53.132;6.408;2023-11-21T22:22:46;5.80;99.90
59208;DHT22;44977;53.132;6.408;2023-11-21T22:27:47;5.80;99.90
59208;DHT22;44977;53.132;6.408;2023-11-21T22:32:47;5.80;99.90
59208;DHT22;44977;53.132;6.408;2023-11-21T22:37:48;5.80;99.90
59208;DHT22;44977;53.132;6.408;2023-11-21T22:42:49;5.80;99.90
59208;DHT22;44977;53.132;6.408;2023-11-21T22:47:50;5.80;99.90
59208;DHT22;44977;53.132;6.408;2023-11-21T22:52:51;5.80;99.90
59208;DHT22;44977;53.132;6.408;2023-11-21T22:57:53;5.80;99.90
59208;DHT22;44977;53.132;6.408;2023-11-21T23:02:54;5.80;99.90
59208;DHT22;44977;53.132;6.408;2023-11-21T23:07:55;5.70;99.90
59208;DHT22;44977;53.132;6.408;2023-11-21T23:12:56;5.70;99.90
59208;DHT22;44977;53.132;6.408;2023-11-21T23:17:57;5.70;99.90
59208;DHT22;44977;53.132;6.408;2023-11-21T23:22:58;5.70;99.90
59208;DHT22;44977;53.132;6.408;2023-11-21T23:27:59;5.70;99.90
59208;DHT22;44977;53.132;6.408;2023-11-21T23:33:01;5.70;99.90
59208;DHT22;44977;53.132;6.408;2023-11-21T23:38:03;5.60;99.90
59208;DHT22;44977;53.132;6.408;2023-11-21T23:43:04;5.60;99.90
59208;DHT22;44977;53.132;6.408;2023-11-21T23:48:05;5.60;99.90
59208;DHT22;44977;53.132;6.408;2023-11-21T23:53:06;5.50;99.90
59208;DHT22;44977;53.132;6.408;2023-11-21T23:58:07;5.50;99.90
